Oklahoma City, OK (73169)

10:45 PM CDT on July 07, 2015 (GMT -0500)
Westwood Estates | | Change Station
CLOSE
Current Station
Personal Weather Station
Location: Oklahoma City, OK
Elevation: 1385 ft
Nearby Weather Stations

Elev 1385 ft 35.38 °N, 97.67 °W | Updated 3 minutes ago

Rain
Rain Mist
65.1 °F
Feels Like 65.1 °F
N
7.8
Wind Variable Wind from NNE

Today
High -- | Low -- °F
--% Chance of Precip.
Yesterday
High -- | Low -- °F
Precip. -- in
6:22 AM 8:48 PM
Waning Gibbous, 58% visible
Pressure 29.92 in
Visibility 3.0 miles
Clouds Overcast 500 ft
Dew Point 63 °F
Humidity 93%
Rainfall 1.76 in
Snow Depth Not available.
UV 0 out of 12
Pollen .60 out of 12
Air Quality Not available.
Flu Activity Not available.
METAR KOKC 080252Z 04013KT 3SM RA BR OVC005 19/19 A2996 RMK AO2 SLP132 P0005 60022 T01940189 58005

More Conditions Fewer Conditions

Pressure 29.92 in
Visibility 3.0 miles
Clouds Overcast 500 ft
Dew Point 63 °F
Humidity 93%
Rainfall 1.76 in
Snow Depth Not available.
UV 0 out of 12
Pollen .60 out of 12
Air Quality Not available.
Flu Activity Not available.
METAR KOKC 080252Z 04013KT 3SM RA BR OVC005 19/19 A2996 RMK AO2 SLP132 P0005 60022 T01940189 58005

More Conditions Fewer Conditions

10-Day Weather Forecast

×

Almanac

Astronomy

Jul. 07, 2015 Rise Set
Actual Time
Civil Twilight
Nautical Twilight
Astronomical Twilight
Moon
Length of Visible Light
Length of Day
Tomorrow will be .
, % of the Moon is Illuminated

Today's Extremes

State Highs State Lows

Community

WunderPhotos

Upload Photos

1,836,037 photos uploaded!

WunderBlogs® & News

Nearby

Air Quality

  Air Quality AQ Index Pollutant
Not available.

Snow Depth

Station Depth Elevation

Earthquake Activity

City Distance Mag. Time & Date
Minimum magnitude displayed is 2.5.

Coastal Water Temperatures

Place Temperature

Stations

Nearby Weather Stations

Station Location Temp. Windchill Dew Point Humidity Wind Precip. Elev Updated Type
                   
Flash Flood Watch
Statement as of 10:03 PM CDT on July 07, 2015

... Flash Flood Watch remains in effect through Wednesday
evening...

The Flash Flood Watch continues for

* portions of Oklahoma and northern Texas... including the
following areas... in Oklahoma... Atoka... Bryan... Carter...
Cleveland... Coal... Cotton... Garvin... Grady... Hughes...
Jefferson... Johnston... Lincoln... Logan... Love... Marshall...
McClain... Murray... Oklahoma... Payne... Pontotoc...
Pottawatomie... Seminole and Stephens. In northern Texas...
Archer... Clay and Wichita.

* Through Wednesday evening

* generally 1 to 3 inches of rainfall can be expected...
especially southeast of Stillwater... Oklahoma
City... Duncan... and Wichita Falls Texas. A few locations may
receive more than 4 inches of rainfall near and east of Ardmore
and Ada.

Precautionary/preparedness actions...

Monitor weather forecasts and information. Make plans to get to
higher ground if flooding happens.